AFR1TB LFBO-EKCH
Flight info
| Callsign | AFR1TB |
|---|---|
| Flight time | 2h 8m |
| Altitude | 36000 |
| Route | FISTO DCT PERIG DCT ADABI DCT BOKNO UN858 VANAD UN874 ARSAF DCT EGOZE DCT CMB DCT VEKIN DCT ADUTO N873 SPY/N0445F350 N873 JUIST DCT DOSUR P729 TUDLO |
| Aircraft | A321/M-SDE3FGHIRWY/LB1 |
Departure
| Time | 2026-04-26 17:50 |
|---|---|
| Airport | Toulouse-Blagnac Airport (LFBO) |
Arrival
| Time | 2026-04-26 19:58 |
|---|---|
| Airport | Copenhagen Kastrup Airport (EKCH) |
| Time | Latitude | Longitude | Altitude | Speed | Heading |
|---|---|---|---|---|---|
| 2026-04-26 17:17 | 43.63134 | 1.37001 | 494 ft | 0 kts | 66° |
| 2026-04-26 17:39 | 43.63131 | 1.36989 | 478 ft | 4 kts | 64° |
| 2026-04-26 17:40 | 43.63118 | 1.36956 | 483 ft | 4 kts | 54° |
| 2026-04-26 17:40 | 43.63107 | 1.36938 | 485 ft | 4 kts | 41° |
| 2026-04-26 17:40 | 43.63080 | 1.36920 | 490 ft | 4 kts | 332° |
| 2026-04-26 17:40 | 43.63081 | 1.36913 | 490 ft | 4 kts | 309° |
| 2026-04-26 17:41 | 43.63089 | 1.36903 | 488 ft | 0 kts | 317° |
| 2026-04-26 17:43 | 43.63090 | 1.36902 | 488 ft | 1 kts | 317° |
| 2026-04-26 17:43 | 43.63114 | 1.36869 | 487 ft | 6 kts | 310° |
| 2026-04-26 17:44 | 43.63113 | 1.36819 | 489 ft | 6 kts | 241° |
| 2026-04-26 17:44 | 43.63063 | 1.36787 | 486 ft | 10 kts | 172° |
| 2026-04-26 17:44 | 43.63011 | 1.36829 | 490 ft | 8 kts | 143° |
| 2026-04-26 17:44 | 43.62950 | 1.36892 | 488 ft | 16 kts | 143° |
| 2026-04-26 17:45 | 43.62831 | 1.37014 | 483 ft | 23 kts | 143° |
| 2026-04-26 17:45 | 43.62705 | 1.37146 | 490 ft | 22 kts | 143° |
| 2026-04-26 17:45 | 43.62587 | 1.37270 | 486 ft | 21 kts | 143° |
| 2026-04-26 17:45 | 43.62474 | 1.37388 | 492 ft | 20 kts | 143° |
| 2026-04-26 17:46 | 43.62369 | 1.37497 | 487 ft | 18 kts | 143° |
| 2026-04-26 17:46 | 43.62272 | 1.37598 | 490 ft | 17 kts | 143° |
| 2026-04-26 17:46 | 43.62181 | 1.37693 | 492 ft | 16 kts | 143° |
| 2026-04-26 17:46 | 43.62095 | 1.37780 | 492 ft | 16 kts | 144° |
| 2026-04-26 17:47 | 43.61988 | 1.37889 | 491 ft | 20 kts | 143° |
| 2026-04-26 17:47 | 43.61917 | 1.37964 | 489 ft | 19 kts | 143° |
| 2026-04-26 17:47 | 43.61782 | 1.38106 | 491 ft | 17 kts | 141° |
| 2026-04-26 17:47 | 43.61702 | 1.38167 | 490 ft | 10 kts | 173° |
| 2026-04-26 17:48 | 43.61642 | 1.38133 | 492 ft | 9 kts | 221° |
| 2026-04-26 17:48 | 43.61604 | 1.38067 | 488 ft | 10 kts | 234° |
| 2026-04-26 17:48 | 43.61600 | 1.37987 | 486 ft | 9 kts | 320° |
| 2026-04-26 17:48 | 43.61605 | 1.37982 | 487 ft | 0 kts | 322° |
| 2026-04-26 17:49 | 43.61749 | 1.37831 | 486 ft | 61 kts | 323° |
| 2026-04-26 17:49 | 43.62257 | 1.37304 | 490 ft | 119 kts | 323° |
| 2026-04-26 17:49 | 43.63051 | 1.36477 | 489 ft | 164 kts | 323° |
| 2026-04-26 17:49 | 43.63996 | 1.35491 | 936 ft | 172 kts | 322° |
| 2026-04-26 17:50 | 43.64941 | 1.34479 | 1600 ft | 171 kts | 322° |
| 2026-04-26 17:50 | 43.65870 | 1.33455 | 2210 ft | 172 kts | 322° |
| 2026-04-26 17:50 | 43.66833 | 1.32390 | 2480 ft | 190 kts | 322° |
| 2026-04-26 17:50 | 43.67917 | 1.31187 | 2649 ft | 210 kts | 321° |
| 2026-04-26 17:51 | 43.69121 | 1.29854 | 2786 ft | 233 kts | 322° |
| 2026-04-26 17:51 | 43.70415 | 1.28426 | 3238 ft | 242 kts | 322° |
| 2026-04-26 17:51 | 43.71830 | 1.27020 | 3651 ft | 258 kts | 334° |
| 2026-04-26 17:51 | 43.73549 | 1.26257 | 4305 ft | 263 kts | 347° |
| 2026-04-26 17:52 | 43.75349 | 1.25667 | 5021 ft | 268 kts | 347° |
| 2026-04-26 17:52 | 43.77182 | 1.25116 | 5711 ft | 272 kts | 354° |
| 2026-04-26 17:52 | 43.79059 | 1.25008 | 6389 ft | 276 kts | 360° |
| 2026-04-26 17:52 | 43.80991 | 1.24951 | 7060 ft | 279 kts | 359° |
| 2026-04-26 17:53 | 43.82941 | 1.24893 | 7772 ft | 281 kts | 359° |
| 2026-04-26 17:53 | 43.84899 | 1.24827 | 8487 ft | 282 kts | 358° |
| 2026-04-26 17:53 | 43.86868 | 1.24759 | 9199 ft | 284 kts | 358° |
| 2026-04-26 17:54 | 43.90851 | 1.24619 | 10435 ft | 294 kts | 358° |
| 2026-04-26 17:54 | 43.92971 | 1.24543 | 10559 ft | 315 kts | 358° |
| 2026-04-26 17:54 | 43.95233 | 1.24460 | 10684 ft | 335 kts | 358° |
| 2026-04-26 17:54 | 43.97591 | 1.24378 | 10852 ft | 351 kts | 358° |
| 2026-04-26 17:55 | 44.00062 | 1.24296 | 11283 ft | 358 kts | 358° |
| 2026-04-26 17:55 | 44.02563 | 1.24214 | 11834 ft | 362 kts | 358° |
| 2026-04-26 17:55 | 44.05097 | 1.24131 | 12394 ft | 365 kts | 358° |
| 2026-04-26 17:55 | 44.07646 | 1.24046 | 12950 ft | 369 kts | 358° |
| 2026-04-26 17:56 | 44.10228 | 1.23962 | 13507 ft | 372 kts | 359° |
| 2026-04-26 17:56 | 44.15411 | 1.23788 | 14507 ft | 378 kts | 358° |
| 2026-04-26 17:57 | 44.20707 | 1.23601 | 15469 ft | 383 kts | 358° |
| 2026-04-26 17:57 | 44.23372 | 1.23504 | 15945 ft | 385 kts | 358° |
| 2026-04-26 17:57 | 44.26065 | 1.23407 | 16420 ft | 387 kts | 358° |
| 2026-04-26 17:57 | 44.28765 | 1.23313 | 16872 ft | 390 kts | 358° |
| 2026-04-26 17:58 | 44.36971 | 1.23036 | 18156 ft | 396 kts | 358° |
| 2026-04-26 17:59 | 44.42480 | 1.22856 | 18868 ft | 401 kts | 358° |
| 2026-04-26 17:59 | 44.45272 | 1.22710 | 19214 ft | 402 kts | 354° |
| 2026-04-26 17:59 | 44.48021 | 1.22014 | 19564 ft | 403 kts | 344° |
| 2026-04-26 17:59 | 44.50723 | 1.20944 | 19906 ft | 404 kts | 343° |
| 2026-04-26 18:00 | 44.53441 | 1.19873 | 20253 ft | 406 kts | 344° |
| 2026-04-26 18:00 | 44.56167 | 1.18807 | 20607 ft | 408 kts | 344° |
| 2026-04-26 18:00 | 44.58908 | 1.17737 | 20962 ft | 410 kts | 344° |
| 2026-04-26 18:00 | 44.61624 | 1.16677 | 21317 ft | 412 kts | 344° |
| 2026-04-26 18:01 | 44.64391 | 1.15597 | 21677 ft | 414 kts | 344° |
| 2026-04-26 18:01 | 44.67168 | 1.14514 | 22034 ft | 416 kts | 344° |
| 2026-04-26 18:01 | 44.69965 | 1.13423 | 22400 ft | 418 kts | 344° |
| 2026-04-26 18:01 | 44.72771 | 1.12328 | 22772 ft | 420 kts | 344° |
| 2026-04-26 18:02 | 44.75592 | 1.11226 | 23143 ft | 422 kts | 344° |
| 2026-04-26 18:02 | 44.77470 | 1.10490 | 23391 ft | 423 kts | 344° |
| 2026-04-26 18:02 | 44.81278 | 1.08997 | 23823 ft | 426 kts | 344° |
| 2026-04-26 18:02 | 44.84140 | 1.07872 | 24118 ft | 428 kts | 344° |
| 2026-04-26 18:03 | 44.87015 | 1.06739 | 24416 ft | 430 kts | 344° |
| 2026-04-26 18:03 | 44.89859 | 1.05629 | 24706 ft | 431 kts | 346° |
| 2026-04-26 18:03 | 44.92834 | 1.05125 | 24998 ft | 433 kts | 1° |
| 2026-04-26 18:03 | 44.95804 | 1.05795 | 25280 ft | 436 kts | 16° |
| 2026-04-26 18:04 | 44.98693 | 1.07128 | 25556 ft | 437 kts | 17° |
| 2026-04-26 18:04 | 45.01582 | 1.08500 | 25848 ft | 439 kts | 18° |
| 2026-04-26 18:04 | 45.04480 | 1.09893 | 26132 ft | 441 kts | 18° |
| 2026-04-26 18:05 | 45.10311 | 1.12669 | 26700 ft | 444 kts | 16° |
| 2026-04-26 18:05 | 45.13233 | 1.13920 | 26976 ft | 445 kts | 15° |
| 2026-04-26 18:05 | 45.16215 | 1.15099 | 27244 ft | 446 kts | 14° |
| 2026-04-26 18:05 | 45.19221 | 1.16243 | 27511 ft | 448 kts | 14° |
| 2026-04-26 18:06 | 45.22238 | 1.17386 | 27749 ft | 450 kts | 14° |
| 2026-04-26 18:06 | 45.25260 | 1.18547 | 27990 ft | 451 kts | 14° |
| 2026-04-26 18:06 | 45.28292 | 1.19737 | 28222 ft | 452 kts | 14° |
| 2026-04-26 18:06 | 45.31328 | 1.20954 | 28437 ft | 454 kts | 14° |
| 2026-04-26 18:07 | 45.34365 | 1.22186 | 28648 ft | 455 kts | 15° |
| 2026-04-26 18:07 | 45.37413 | 1.23427 | 28851 ft | 456 kts | 15° |
| 2026-04-26 18:07 | 45.40467 | 1.24667 | 29060 ft | 457 kts | 14° |
| 2026-04-26 18:07 | 45.42492 | 1.25486 | 29256 ft | 456 kts | 14° |
| 2026-04-26 18:08 | 45.46530 | 1.27116 | 29615 ft | 455 kts | 14° |
| 2026-04-26 18:08 | 45.49564 | 1.28340 | 29874 ft | 454 kts | 14° |
| 2026-04-26 18:08 | 45.52611 | 1.29570 | 30138 ft | 454 kts | 14° |
| 2026-04-26 18:08 | 45.55647 | 1.30795 | 30355 ft | 453 kts | 14° |
| 2026-04-26 18:09 | 45.58674 | 1.32016 | 30587 ft | 452 kts | 14° |
| 2026-04-26 18:09 | 45.61698 | 1.33241 | 30823 ft | 451 kts | 14° |
| 2026-04-26 18:09 | 45.64680 | 1.34458 | 31067 ft | 450 kts | 14° |
| 2026-04-26 18:09 | 45.67686 | 1.35687 | 31314 ft | 450 kts | 14° |
| 2026-04-26 18:10 | 45.70691 | 1.36917 | 31561 ft | 449 kts | 14° |
| 2026-04-26 18:10 | 45.73689 | 1.38141 | 31811 ft | 447 kts | 14° |
| 2026-04-26 18:10 | 45.76679 | 1.39359 | 32063 ft | 446 kts | 14° |
| 2026-04-26 18:10 | 45.79664 | 1.40576 | 32322 ft | 445 kts | 14° |
| 2026-04-26 18:11 | 45.82641 | 1.41790 | 32580 ft | 444 kts | 14° |
| 2026-04-26 18:11 | 45.85608 | 1.43000 | 32835 ft | 443 kts | 14° |
| 2026-04-26 18:11 | 45.88568 | 1.44212 | 33092 ft | 442 kts | 14° |
| 2026-04-26 18:11 | 45.91522 | 1.45427 | 33344 ft | 441 kts | 14° |
| 2026-04-26 18:12 | 45.94430 | 1.46623 | 33575 ft | 440 kts | 14° |
| 2026-04-26 18:12 | 45.97371 | 1.47834 | 33818 ft | 439 kts | 14° |
| 2026-04-26 18:12 | 46.00308 | 1.49044 | 34050 ft | 439 kts | 14° |
| 2026-04-26 18:12 | 46.03243 | 1.50255 | 34253 ft | 438 kts | 14° |
| 2026-04-26 18:13 | 46.06172 | 1.51464 | 34439 ft | 438 kts | 13° |
| 2026-04-26 18:13 | 46.09107 | 1.52675 | 34613 ft | 438 kts | 13° |
| 2026-04-26 18:13 | 46.12032 | 1.53882 | 34778 ft | 438 kts | 13° |
| 2026-04-26 18:13 | 46.13975 | 1.54686 | 34890 ft | 438 kts | 13° |
| 2026-04-26 18:14 | 46.17892 | 1.56313 | 35111 ft | 438 kts | 14° |
| 2026-04-26 18:14 | 46.23727 | 1.58744 | 35170 ft | 439 kts | 13° |
| 2026-04-26 18:15 | 46.29596 | 1.61185 | 35173 ft | 439 kts | 13° |
| 2026-04-26 18:15 | 46.35484 | 1.63637 | 35175 ft | 440 kts | 13° |
| 2026-04-26 18:16 | 46.41365 | 1.66084 | 35178 ft | 440 kts | 13° |
| 2026-04-26 18:16 | 46.50145 | 1.69761 | 35172 ft | 440 kts | 13° |
| 2026-04-26 18:17 | 46.56029 | 1.72244 | 35167 ft | 440 kts | 13° |
| 2026-04-26 18:17 | 46.61917 | 1.74725 | 35172 ft | 440 kts | 13° |
| 2026-04-26 18:18 | 46.67802 | 1.77212 | 35163 ft | 440 kts | 13° |
| 2026-04-26 18:18 | 46.73650 | 1.79688 | 35168 ft | 440 kts | 13° |
| 2026-04-26 18:19 | 46.79531 | 1.82182 | 35169 ft | 440 kts | 13° |
| 2026-04-26 18:19 | 46.85418 | 1.84683 | 35165 ft | 440 kts | 13° |
| 2026-04-26 18:20 | 46.91301 | 1.87184 | 35163 ft | 441 kts | 13° |
| 2026-04-26 18:20 | 46.96195 | 1.89276 | 35167 ft | 440 kts | 13° |
| 2026-04-26 18:21 | 47.03026 | 1.92205 | 35168 ft | 441 kts | 13° |
| 2026-04-26 18:21 | 47.08919 | 1.94735 | 35167 ft | 441 kts | 13° |
| 2026-04-26 18:22 | 47.14809 | 1.97263 | 35168 ft | 441 kts | 13° |
| 2026-04-26 18:22 | 47.20664 | 1.99788 | 35170 ft | 442 kts | 13° |
| 2026-04-26 18:23 | 47.26565 | 2.02342 | 35172 ft | 442 kts | 13° |
| 2026-04-26 18:23 | 47.32468 | 2.04898 | 35170 ft | 442 kts | 13° |
| 2026-04-26 18:24 | 47.38374 | 2.07460 | 35174 ft | 443 kts | 13° |
| 2026-04-26 18:24 | 47.44250 | 2.10011 | 35178 ft | 443 kts | 13° |
| 2026-04-26 18:25 | 47.50164 | 2.12591 | 35179 ft | 443 kts | 13° |
| 2026-04-26 18:25 | 47.56076 | 2.15175 | 35184 ft | 443 kts | 13° |
| 2026-04-26 18:26 | 47.61989 | 2.17770 | 35189 ft | 443 kts | 13° |
| 2026-04-26 18:26 | 47.67892 | 2.20370 | 35188 ft | 442 kts | 13° |
| 2026-04-26 18:27 | 47.73755 | 2.22947 | 35194 ft | 442 kts | 13° |
| 2026-04-26 18:27 | 47.79649 | 2.25538 | 35194 ft | 442 kts | 13° |
| 2026-04-26 18:28 | 47.85542 | 2.28152 | 35192 ft | 441 kts | 13° |
| 2026-04-26 18:28 | 47.91422 | 2.30772 | 35194 ft | 441 kts | 13° |
| 2026-04-26 18:29 | 47.97271 | 2.33357 | 35196 ft | 441 kts | 13° |
| 2026-04-26 18:29 | 48.03162 | 2.35975 | 35195 ft | 442 kts | 13° |
| 2026-04-26 18:30 | 48.09027 | 2.38602 | 35196 ft | 440 kts | 13° |
| 2026-04-26 18:30 | 48.14891 | 2.41232 | 35198 ft | 440 kts | 13° |
| 2026-04-26 18:31 | 48.20720 | 2.43841 | 35205 ft | 441 kts | 13° |
| 2026-04-26 18:31 | 48.26605 | 2.46491 | 35204 ft | 442 kts | 13° |
| 2026-04-26 18:32 | 48.32501 | 2.49153 | 35207 ft | 442 kts | 13° |
| 2026-04-26 18:32 | 48.38397 | 2.51810 | 35205 ft | 443 kts | 13° |
| 2026-04-26 18:33 | 48.44260 | 2.54467 | 35204 ft | 443 kts | 13° |
| 2026-04-26 18:33 | 48.50164 | 2.57158 | 35206 ft | 443 kts | 13° |
| 2026-04-26 18:34 | 48.56063 | 2.59843 | 35207 ft | 443 kts | 13° |
| 2026-04-26 18:34 | 48.61848 | 2.62475 | 35209 ft | 443 kts | 13° |
| 2026-04-26 18:35 | 48.67704 | 2.65151 | 35210 ft | 442 kts | 13° |
| 2026-04-26 18:35 | 48.73587 | 2.67852 | 35214 ft | 442 kts | 13° |
| 2026-04-26 18:36 | 48.79468 | 2.70559 | 35224 ft | 441 kts | 13° |
| 2026-04-26 18:36 | 48.85337 | 2.73260 | 35237 ft | 441 kts | 13° |
| 2026-04-26 18:37 | 48.91172 | 2.75953 | 35234 ft | 441 kts | 13° |
| 2026-04-26 18:37 | 48.97040 | 2.78675 | 35234 ft | 441 kts | 13° |
| 2026-04-26 18:38 | 49.02914 | 2.81400 | 35232 ft | 441 kts | 13° |
| 2026-04-26 18:38 | 49.08786 | 2.84129 | 35230 ft | 441 kts | 13° |
| 2026-04-26 18:39 | 49.14613 | 2.86850 | 35231 ft | 441 kts | 13° |
| 2026-04-26 18:39 | 49.20483 | 2.89595 | 35232 ft | 441 kts | 13° |
| 2026-04-26 18:40 | 49.26357 | 2.92348 | 35233 ft | 441 kts | 13° |
| 2026-04-26 18:40 | 49.32232 | 2.95106 | 35236 ft | 442 kts | 13° |
| 2026-04-26 18:41 | 49.38072 | 2.97853 | 35241 ft | 442 kts | 13° |
| 2026-04-26 18:41 | 49.43947 | 3.00630 | 35242 ft | 442 kts | 14° |
| 2026-04-26 18:42 | 49.49822 | 3.03417 | 35235 ft | 442 kts | 14° |
| 2026-04-26 18:42 | 49.55691 | 3.06204 | 35241 ft | 441 kts | 14° |
| 2026-04-26 18:43 | 49.61559 | 3.09002 | 35239 ft | 441 kts | 14° |
| 2026-04-26 18:43 | 49.67389 | 3.11787 | 35241 ft | 441 kts | 14° |
| 2026-04-26 18:44 | 49.73268 | 3.14595 | 35218 ft | 444 kts | 14° |
| 2026-04-26 18:44 | 49.79183 | 3.17424 | 35209 ft | 446 kts | 14° |
| 2026-04-26 18:45 | 49.85125 | 3.20275 | 35214 ft | 448 kts | 14° |
| 2026-04-26 18:45 | 49.91081 | 3.23150 | 35221 ft | 449 kts | 14° |
| 2026-04-26 18:46 | 49.97002 | 3.26021 | 35230 ft | 449 kts | 14° |
| 2026-04-26 18:46 | 50.02972 | 3.28912 | 35240 ft | 450 kts | 14° |
| 2026-04-26 18:47 | 50.08949 | 3.31809 | 35242 ft | 450 kts | 14° |
| 2026-04-26 18:47 | 50.14921 | 3.34715 | 35252 ft | 450 kts | 14° |
| 2026-04-26 18:48 | 50.20859 | 3.37614 | 35267 ft | 450 kts | 14° |
| 2026-04-26 18:48 | 50.26832 | 3.40538 | 35270 ft | 450 kts | 14° |
| 2026-04-26 18:49 | 50.32805 | 3.43474 | 35274 ft | 450 kts | 14° |
| 2026-04-26 18:49 | 50.38782 | 3.46421 | 35277 ft | 450 kts | 14° |
| 2026-04-26 18:50 | 50.44760 | 3.49371 | 35283 ft | 450 kts | 14° |
| 2026-04-26 18:50 | 50.50696 | 3.52309 | 35282 ft | 451 kts | 14° |
| 2026-04-26 18:51 | 50.56680 | 3.55266 | 35284 ft | 451 kts | 14° |
| 2026-04-26 18:51 | 50.62661 | 3.58234 | 35281 ft | 451 kts | 14° |
| 2026-04-26 18:52 | 50.68597 | 3.61210 | 35281 ft | 451 kts | 14° |
| 2026-04-26 18:52 | 50.74570 | 3.64211 | 35280 ft | 451 kts | 14° |
| 2026-04-26 18:53 | 50.80552 | 3.67205 | 35280 ft | 450 kts | 14° |
| 2026-04-26 18:53 | 50.86527 | 3.70201 | 35283 ft | 450 kts | 14° |
| 2026-04-26 18:54 | 50.92508 | 3.73166 | 35283 ft | 450 kts | 12° |
| 2026-04-26 18:54 | 50.98479 | 3.75828 | 35282 ft | 449 kts | 11° |
| 2026-04-26 18:55 | 51.04512 | 3.78423 | 35289 ft | 449 kts | 11° |
| 2026-04-26 18:55 | 51.10529 | 3.81080 | 35291 ft | 449 kts | 12° |
| 2026-04-26 18:56 | 51.16534 | 3.83788 | 35289 ft | 449 kts | 12° |
| 2026-04-26 18:56 | 51.22538 | 3.86520 | 35290 ft | 449 kts | 14° |
| 2026-04-26 18:57 | 51.26380 | 3.89043 | 35291 ft | 453 kts | 21° |
| 2026-04-26 18:57 | 51.33997 | 3.94638 | 35295 ft | 452 kts | 21° |
| 2026-04-26 18:58 | 51.39716 | 3.98829 | 35297 ft | 452 kts | 21° |
| 2026-04-26 18:58 | 51.45430 | 4.03039 | 35299 ft | 452 kts | 22° |
| 2026-04-26 18:59 | 51.48117 | 4.05707 | 35292 ft | 458 kts | 37° |
| 2026-04-26 18:59 | 51.50473 | 4.09164 | 35294 ft | 460 kts | 39° |
| 2026-04-26 18:59 | 51.55092 | 4.16174 | 35297 ft | 460 kts | 40° |
| 2026-04-26 19:00 | 51.59725 | 4.23281 | 35293 ft | 460 kts | 40° |
| 2026-04-26 19:00 | 51.64351 | 4.30390 | 35295 ft | 460 kts | 40° |
| 2026-04-26 19:01 | 51.68972 | 4.37500 | 35297 ft | 459 kts | 40° |
| 2026-04-26 19:01 | 51.73592 | 4.44615 | 35314 ft | 459 kts | 40° |
| 2026-04-26 19:02 | 51.78177 | 4.51701 | 35320 ft | 459 kts | 40° |
| 2026-04-26 19:02 | 51.82015 | 4.57644 | 35322 ft | 459 kts | 40° |
| 2026-04-26 19:03 | 51.87368 | 4.65954 | 35328 ft | 459 kts | 40° |
| 2026-04-26 19:03 | 51.91961 | 4.73128 | 35328 ft | 458 kts | 40° |
| 2026-04-26 19:04 | 51.96489 | 4.80224 | 35322 ft | 458 kts | 40° |
| 2026-04-26 19:04 | 52.01066 | 4.87410 | 35329 ft | 457 kts | 40° |
| 2026-04-26 19:05 | 52.07884 | 4.98142 | 35340 ft | 457 kts | 40° |
| 2026-04-26 19:06 | 52.12434 | 5.05348 | 35340 ft | 456 kts | 40° |
| 2026-04-26 19:06 | 52.16980 | 5.12561 | 35337 ft | 456 kts | 39° |
| 2026-04-26 19:07 | 52.21529 | 5.19791 | 35340 ft | 456 kts | 39° |
| 2026-04-26 19:07 | 52.26070 | 5.27035 | 35341 ft | 456 kts | 39° |
| 2026-04-26 19:08 | 52.30569 | 5.34240 | 35340 ft | 456 kts | 39° |
| 2026-04-26 19:08 | 52.35100 | 5.41507 | 35341 ft | 456 kts | 39° |
| 2026-04-26 19:09 | 52.39632 | 5.48792 | 35341 ft | 456 kts | 39° |
| 2026-04-26 19:09 | 52.44154 | 5.56081 | 35336 ft | 456 kts | 39° |
| 2026-04-26 19:10 | 52.48671 | 5.63400 | 35335 ft | 456 kts | 39° |
| 2026-04-26 19:10 | 52.53176 | 5.70731 | 35330 ft | 456 kts | 39° |
| 2026-04-26 19:11 | 52.57651 | 5.78034 | 35327 ft | 457 kts | 39° |
| 2026-04-26 19:11 | 52.62159 | 5.85402 | 35326 ft | 457 kts | 39° |
| 2026-04-26 19:11 | 52.64608 | 5.88632 | 35330 ft | 446 kts | 24° |
| 2026-04-26 19:12 | 52.67406 | 5.90638 | 35328 ft | 437 kts | 14° |
| 2026-04-26 19:12 | 52.73169 | 5.93819 | 35323 ft | 437 kts | 13° |
| 2026-04-26 19:13 | 52.78947 | 5.96975 | 35329 ft | 437 kts | 13° |
| 2026-04-26 19:13 | 52.84690 | 6.00120 | 35333 ft | 438 kts | 13° |
| 2026-04-26 19:14 | 52.90474 | 6.03294 | 35343 ft | 438 kts | 13° |
| 2026-04-26 19:14 | 52.96076 | 6.07375 | 35336 ft | 451 kts | 32° |
| 2026-04-26 19:15 | 53.00382 | 6.15160 | 35330 ft | 461 kts | 45° |
| 2026-04-26 19:15 | 53.04440 | 6.23423 | 35327 ft | 462 kts | 45° |
| 2026-04-26 19:16 | 53.07819 | 6.30322 | 35326 ft | 463 kts | 45° |
| 2026-04-26 19:16 | 53.12554 | 6.39971 | 35329 ft | 463 kts | 45° |
| 2026-04-26 19:17 | 53.16627 | 6.48282 | 35334 ft | 463 kts | 45° |
| 2026-04-26 19:17 | 53.20695 | 6.56613 | 35336 ft | 463 kts | 46° |
| 2026-04-26 19:18 | 53.24075 | 6.63557 | 35341 ft | 464 kts | 46° |
| 2026-04-26 19:18 | 53.28136 | 6.71930 | 35344 ft | 464 kts | 46° |
| 2026-04-26 19:19 | 53.32187 | 6.80311 | 35349 ft | 464 kts | 46° |
| 2026-04-26 19:19 | 53.36235 | 6.88723 | 35363 ft | 464 kts | 46° |
| 2026-04-26 19:20 | 53.40273 | 6.97146 | 35370 ft | 464 kts | 46° |
| 2026-04-26 19:20 | 53.44283 | 7.05523 | 35372 ft | 464 kts | 46° |
| 2026-04-26 19:21 | 53.48320 | 7.13975 | 35372 ft | 464 kts | 46° |
| 2026-04-26 19:21 | 53.52343 | 7.22445 | 35369 ft | 464 kts | 46° |
| 2026-04-26 19:22 | 53.56357 | 7.30936 | 35364 ft | 464 kts | 46° |
| 2026-04-26 19:22 | 53.60369 | 7.39436 | 35348 ft | 464 kts | 46° |
| 2026-04-26 19:23 | 53.64348 | 7.47901 | 35348 ft | 464 kts | 46° |
| 2026-04-26 19:23 | 53.68354 | 7.56435 | 35348 ft | 464 kts | 46° |
| 2026-04-26 19:24 | 53.72355 | 7.64987 | 35345 ft | 464 kts | 47° |
| 2026-04-26 19:24 | 53.78337 | 7.77854 | 35349 ft | 464 kts | 47° |
| 2026-04-26 19:25 | 53.81647 | 7.84996 | 35350 ft | 464 kts | 47° |
| 2026-04-26 19:25 | 53.86268 | 7.95012 | 35356 ft | 464 kts | 47° |
| 2026-04-26 19:26 | 53.90240 | 8.03641 | 35355 ft | 464 kts | 47° |
| 2026-04-26 19:26 | 53.94203 | 8.12293 | 35358 ft | 464 kts | 47° |
| 2026-04-26 19:27 | 53.98160 | 8.20967 | 35354 ft | 464 kts | 47° |
| 2026-04-26 19:27 | 54.02117 | 8.29648 | 35352 ft | 464 kts | 47° |
| 2026-04-26 19:28 | 54.06037 | 8.38292 | 35346 ft | 464 kts | 47° |
| 2026-04-26 19:28 | 54.09980 | 8.47002 | 35345 ft | 464 kts | 47° |
| 2026-04-26 19:29 | 54.13921 | 8.55740 | 35337 ft | 464 kts | 47° |
| 2026-04-26 19:29 | 54.17848 | 8.64485 | 35341 ft | 464 kts | 47° |
| 2026-04-26 19:30 | 54.21772 | 8.73244 | 35336 ft | 464 kts | 47° |
| 2026-04-26 19:30 | 54.25024 | 8.80540 | 35332 ft | 464 kts | 48° |
| 2026-04-26 19:31 | 54.29568 | 8.90776 | 35334 ft | 464 kts | 48° |
| 2026-04-26 19:31 | 54.33464 | 8.99592 | 35333 ft | 464 kts | 48° |
| 2026-04-26 19:32 | 54.37359 | 9.08421 | 35326 ft | 464 kts | 48° |
| 2026-04-26 19:32 | 54.41247 | 9.17259 | 35338 ft | 464 kts | 48° |
| 2026-04-26 19:33 | 54.45089 | 9.26086 | 35338 ft | 466 kts | 51° |
| 2026-04-26 19:33 | 54.48450 | 9.35681 | 35344 ft | 469 kts | 55° |
| 2026-04-26 19:34 | 54.51700 | 9.45406 | 35341 ft | 469 kts | 56° |
| 2026-04-26 19:34 | 54.54931 | 9.55168 | 35341 ft | 469 kts | 55° |
| 2026-04-26 19:35 | 54.58169 | 9.64917 | 35337 ft | 469 kts | 55° |
| 2026-04-26 19:35 | 54.61397 | 9.74606 | 35279 ft | 470 kts | 55° |
| 2026-04-26 19:36 | 54.63020 | 9.79494 | 35028 ft | 469 kts | 55° |
| 2026-04-26 19:36 | 54.64115 | 9.82805 | 34868 ft | 470 kts | 55° |
| 2026-04-26 19:36 | 54.66255 | 9.89294 | 34551 ft | 470 kts | 56° |
| 2026-04-26 19:36 | 54.67874 | 9.94215 | 34312 ft | 471 kts | 56° |
| 2026-04-26 19:37 | 54.69489 | 9.99138 | 34047 ft | 472 kts | 56° |
| 2026-04-26 19:37 | 54.71108 | 10.04077 | 33771 ft | 472 kts | 56° |
| 2026-04-26 19:37 | 54.72726 | 10.09024 | 33459 ft | 472 kts | 56° |
| 2026-04-26 19:37 | 54.74337 | 10.13966 | 32614 ft | 472 kts | 56° |
| 2026-04-26 19:38 | 54.75930 | 10.18856 | 31692 ft | 474 kts | 56° |
| 2026-04-26 19:38 | 54.77553 | 10.23840 | 30764 ft | 476 kts | 56° |
| 2026-04-26 19:38 | 54.79175 | 10.28839 | 29749 ft | 478 kts | 56° |
| 2026-04-26 19:38 | 54.80806 | 10.33871 | 28652 ft | 479 kts | 56° |
| 2026-04-26 19:39 | 54.82438 | 10.38921 | 27568 ft | 481 kts | 56° |
| 2026-04-26 19:39 | 54.84071 | 10.43987 | 26479 ft | 482 kts | 57° |
| 2026-04-26 19:39 | 54.85701 | 10.49070 | 25382 ft | 483 kts | 57° |
| 2026-04-26 19:39 | 54.87337 | 10.54183 | 24279 ft | 484 kts | 57° |
| 2026-04-26 19:40 | 54.88965 | 10.59277 | 23691 ft | 480 kts | 57° |
| 2026-04-26 19:40 | 54.90586 | 10.64351 | 23414 ft | 480 kts | 57° |
| 2026-04-26 19:40 | 54.92157 | 10.69277 | 23137 ft | 464 kts | 57° |
| 2026-04-26 19:40 | 54.93685 | 10.74098 | 22919 ft | 446 kts | 57° |
| 2026-04-26 19:41 | 54.95170 | 10.78796 | 21983 ft | 445 kts | 57° |
| 2026-04-26 19:41 | 54.96635 | 10.83425 | 21788 ft | 428 kts | 56° |
| 2026-04-26 19:41 | 54.98057 | 10.87927 | 20889 ft | 427 kts | 56° |
| 2026-04-26 19:41 | 54.99016 | 10.90944 | 20064 ft | 434 kts | 56° |
| 2026-04-26 19:42 | 55.00927 | 10.96979 | 19388 ft | 407 kts | 56° |
| 2026-04-26 19:42 | 55.02260 | 11.01232 | 19053 ft | 394 kts | 56° |
| 2026-04-26 19:42 | 55.03549 | 11.05351 | 18818 ft | 381 kts | 56° |
| 2026-04-26 19:42 | 55.04796 | 11.09349 | 18524 ft | 371 kts | 56° |
| 2026-04-26 19:43 | 55.06006 | 11.13219 | 18068 ft | 366 kts | 56° |
| 2026-04-26 19:43 | 55.07215 | 11.17084 | 17630 ft | 360 kts | 56° |
| 2026-04-26 19:43 | 55.08406 | 11.20891 | 17201 ft | 355 kts | 56° |
| 2026-04-26 19:43 | 55.09593 | 11.24681 | 16426 ft | 360 kts | 56° |
| 2026-04-26 19:44 | 55.10815 | 11.28570 | 15480 ft | 371 kts | 56° |
| 2026-04-26 19:44 | 55.12037 | 11.32482 | 14895 ft | 362 kts | 56° |
| 2026-04-26 19:44 | 55.13208 | 11.36268 | 14505 ft | 347 kts | 56° |
| 2026-04-26 19:44 | 55.14328 | 11.39906 | 14097 ft | 334 kts | 56° |
| 2026-04-26 19:45 | 55.15420 | 11.43453 | 13669 ft | 329 kts | 56° |
| 2026-04-26 19:45 | 55.16498 | 11.46949 | 13261 ft | 325 kts | 56° |
| 2026-04-26 19:45 | 55.17563 | 11.50401 | 12857 ft | 320 kts | 56° |
| 2026-04-26 19:45 | 55.18613 | 11.53807 | 12459 ft | 316 kts | 56° |
| 2026-04-26 19:46 | 55.19636 | 11.57136 | 12055 ft | 313 kts | 56° |
| 2026-04-26 19:46 | 55.20660 | 11.60472 | 11668 ft | 310 kts | 56° |
| 2026-04-26 19:46 | 55.21674 | 11.63773 | 11273 ft | 306 kts | 56° |
| 2026-04-26 19:46 | 55.22680 | 11.67046 | 10885 ft | 303 kts | 57° |
| 2026-04-26 19:47 | 55.23672 | 11.70284 | 10510 ft | 300 kts | 57° |
| 2026-04-26 19:47 | 55.24331 | 11.72449 | 10294 ft | 297 kts | 57° |
| 2026-04-26 19:47 | 55.25603 | 11.76632 | 10086 ft | 292 kts | 57° |
| 2026-04-26 19:47 | 55.26559 | 11.79775 | 9792 ft | 293 kts | 57° |
| 2026-04-26 19:48 | 55.27516 | 11.82919 | 9370 ft | 291 kts | 57° |
| 2026-04-26 19:48 | 55.28462 | 11.86032 | 8993 ft | 287 kts | 57° |
| 2026-04-26 19:48 | 55.29392 | 11.89105 | 8620 ft | 283 kts | 58° |
| 2026-04-26 19:48 | 55.30307 | 11.92136 | 8271 ft | 279 kts | 58° |
| 2026-04-26 19:49 | 55.31209 | 11.95126 | 7905 ft | 276 kts | 58° |
| 2026-04-26 19:49 | 55.32089 | 11.98047 | 7568 ft | 272 kts | 58° |
| 2026-04-26 19:49 | 55.32977 | 12.00990 | 7211 ft | 276 kts | 59° |
| 2026-04-26 19:49 | 55.33878 | 12.03972 | 6858 ft | 276 kts | 59° |
| 2026-04-26 19:50 | 55.34767 | 12.06929 | 6487 ft | 272 kts | 59° |
| 2026-04-26 19:50 | 55.35645 | 12.09849 | 6138 ft | 268 kts | 59° |
| 2026-04-26 19:50 | 55.36505 | 12.12718 | 5795 ft | 263 kts | 59° |
| 2026-04-26 19:50 | 55.37352 | 12.15540 | 5462 ft | 259 kts | 59° |
| 2026-04-26 19:51 | 55.38187 | 12.18322 | 5135 ft | 256 kts | 59° |
| 2026-04-26 19:51 | 55.39010 | 12.21071 | 4793 ft | 252 kts | 59° |
| 2026-04-26 19:51 | 55.39822 | 12.23789 | 4472 ft | 249 kts | 59° |
| 2026-04-26 19:51 | 55.40613 | 12.26441 | 4151 ft | 247 kts | 59° |
| 2026-04-26 19:52 | 55.41405 | 12.29098 | 3837 ft | 245 kts | 59° |
| 2026-04-26 19:52 | 55.42190 | 12.31738 | 3535 ft | 242 kts | 59° |
| 2026-04-26 19:52 | 55.42961 | 12.34328 | 3229 ft | 235 kts | 60° |
| 2026-04-26 19:52 | 55.43866 | 12.36635 | 3014 ft | 222 kts | 44° |
| 2026-04-26 19:53 | 55.44963 | 12.38467 | 3001 ft | 214 kts | 38° |
| 2026-04-26 19:53 | 55.46083 | 12.40178 | 3006 ft | 210 kts | 38° |
| 2026-04-26 19:53 | 55.47152 | 12.41810 | 3002 ft | 198 kts | 37° |
| 2026-04-26 19:53 | 55.48183 | 12.43387 | 2914 ft | 195 kts | 38° |
| 2026-04-26 19:54 | 55.49201 | 12.44944 | 2699 ft | 193 kts | 38° |
| 2026-04-26 19:54 | 55.50199 | 12.46474 | 2457 ft | 192 kts | 38° |
| 2026-04-26 19:54 | 55.51205 | 12.48017 | 2195 ft | 192 kts | 39° |
| 2026-04-26 19:54 | 55.52209 | 12.49558 | 1946 ft | 190 kts | 39° |
| 2026-04-26 19:55 | 55.53183 | 12.51056 | 1680 ft | 181 kts | 39° |
| 2026-04-26 19:55 | 55.54107 | 12.52478 | 1436 ft | 170 kts | 39° |
| 2026-04-26 19:55 | 55.54968 | 12.53801 | 1200 ft | 160 kts | 40° |
| 2026-04-26 19:55 | 55.55793 | 12.55070 | 974 ft | 155 kts | 40° |
| 2026-04-26 19:56 | 55.56587 | 12.56293 | 754 ft | 152 kts | 41° |
| 2026-04-26 19:56 | 55.57375 | 12.57508 | 562 ft | 150 kts | 41° |
| 2026-04-26 19:56 | 55.58156 | 12.58711 | 339 ft | 148 kts | 42° |
| 2026-04-26 19:56 | 55.58926 | 12.59900 | 146 ft | 147 kts | 42° |
| 2026-04-26 19:57 | 55.59678 | 12.61071 | 19 ft | 131 kts | 41° |
| 2026-04-26 19:57 | 55.60191 | 12.61869 | 19 ft | 73 kts | 41° |
| 2026-04-26 19:57 | 55.60529 | 12.62388 | 19 ft | 61 kts | 40° |
| 2026-04-26 19:57 | 55.60838 | 12.62855 | 18 ft | 56 kts | 41° |
| 2026-04-26 19:58 | 55.61034 | 12.63155 | 20 ft | 22 kts | 40° |
| 2026-04-26 19:58 | 55.61154 | 12.63311 | 21 ft | 21 kts | 20° |
| 2026-04-26 19:58 | 55.61297 | 12.63315 | 18 ft | 21 kts | 355° |
| 2026-04-26 19:58 | 55.61427 | 12.63391 | 17 ft | 20 kts | 41° |
| 2026-04-26 19:59 | 55.61531 | 12.63552 | 17 ft | 20 kts | 41° |
| 2026-04-26 19:59 | 55.61631 | 12.63706 | 18 ft | 19 kts | 41° |
| 2026-04-26 19:59 | 55.61728 | 12.63855 | 18 ft | 18 kts | 41° |
| 2026-04-26 19:59 | 55.61821 | 12.64000 | 18 ft | 18 kts | 41° |
| 2026-04-26 20:00 | 55.61922 | 12.64116 | 17 ft | 17 kts | 25° |
| 2026-04-26 20:00 | 55.62032 | 12.64207 | 17 ft | 17 kts | 25° |
| 2026-04-26 20:00 | 55.62139 | 12.64296 | 17 ft | 17 kts | 25° |
| 2026-04-26 20:00 | 55.62252 | 12.64383 | 16 ft | 18 kts | 18° |
| 2026-04-26 20:01 | 55.62356 | 12.64418 | 17 ft | 14 kts | 26° |
| 2026-04-26 20:01 | 55.62439 | 12.64474 | 17 ft | 10 kts | 17° |
| 2026-04-26 20:01 | 55.62500 | 12.64453 | 18 ft | 9 kts | 307° |
| 2026-04-26 20:01 | 55.62534 | 12.64370 | 17 ft | 8 kts | 305° |
| 2026-04-26 20:02 | 55.62564 | 12.64293 | 17 ft | 7 kts | 304° |
| 2026-04-26 20:02 | 55.62602 | 12.64272 | 17 ft | 6 kts | 14° |
| 2026-04-26 20:02 | 55.62642 | 12.64298 | 17 ft | 7 kts | 21° |
| 2026-04-26 20:02 | 55.62672 | 12.64320 | 17 ft | 6 kts | 22° |
| 2026-04-26 20:03 | 55.62711 | 12.64321 | 17 ft | 3 kts | 313° |
| 2026-04-26 20:03 | 55.62721 | 12.64297 | 17 ft | 2 kts | 307° |
| 2026-04-26 20:03 | 55.62724 | 12.64290 | 17 ft | 0 kts | 305° |
| 2026-04-26 20:03 | 55.62726 | 12.64285 | 17 ft | 1 kts | 305° |
| 2026-04-26 20:04 | 55.62728 | 12.64279 | 17 ft | 0 kts | 304° |